Time;durP1;ratioP1;P1;durP2;ratioP2;P2;SDS_P1;SDS_P2;PMS_P1;PMS_P2;Temp;Humidity;BMP_temperature;BMP_pressure;BME280_temperature;BME280_humidity;BME280_pressure;Samples;Min_cycle;Max_cycle;Signal;HPM_P1;HPM_P2
2022/10/24 00:02:04;;;;;;;7.17;3.50;;;12.00;91.60;;;;;;5017007;28;20211;-60
2022/10/24 00:04:33;;;;;;;8.20;3.70;;;12.00;91.60;;;;;;5033237;28;20196;-60
2022/10/24 00:06:59;;;;;;;3.57;3.17;;;12.10;91.70;;;;;;5037317;28;20191;-60
2022/10/24 00:09:25;;;;;;;4.43;3.33;;;12.10;91.70;;;;;;5030162;28;20195;-60
2022/10/24 00:11:50;;;;;;;5.40;3.10;;;12.10;91.80;;;;;;5022964;28;20198;-60
2022/10/24 00:14:16;;;;;;;7.37;3.70;;;12.20;91.70;;;;;;5006760;28;20207;-60
2022/10/24 00:16:42;;;;;;;3.90;2.70;;;12.20;91.60;;;;;;5017809;28;20354;-60
2022/10/24 00:19:07;;;;;;;7.27;3.60;;;12.20;91.60;;;;;;5016341;28;20198;-60
2022/10/24 00:21:33;;;;;;;7.13;3.30;;;12.20;91.60;;;;;;5017557;28;20187;-60
2022/10/24 00:23:59;;;;;;;5.37;3.20;;;12.10;91.50;;;;;;5014626;28;20196;-60
2022/10/24 00:26:24;;;;;;;8.93;3.60;;;12.10;91.50;;;;;;5049234;28;20199;-60
2022/10/24 00:28:50;;;;;;;11.47;3.37;;;12.10;91.70;;;;;;5016702;28;20197;-60
2022/10/24 00:31:18;;;;;;;5.40;3.13;;;12.10;91.70;;;;;;5024849;28;20569;-60
2022/10/24 00:33:44;;;;;;;6.30;3.43;;;12.00;91.70;;;;;;5070534;28;20223;-60
2022/10/24 00:36:13;;;;;;;5.20;3.87;;;12.00;91.70;;;;;;5039701;28;20194;-60
2022/10/24 00:38:39;;;;;;;7.43;3.33;;;12.00;91.70;;;;;;5066005;28;20221;-60
2022/10/24 00:41:05;;;;;;;7.87;3.50;;;11.90;91.70;;;;;;5011540;28;20192;-60
2022/10/24 00:43:31;;;;;;;5.20;2.93;;;11.90;91.60;;;;;;5012781;28;20191;-60
2022/10/24 00:45:58;;;;;;;8.10;2.97;;;11.80;91.30;;;;;;5059181;28;20186;-60
2022/10/24 00:48:32;;;;;;;4.03;2.87;;;11.80;91.50;;;;;;5036545;28;20210;-60
2022/10/24 00:51:29;;;;;;;3.27;2.90;;;11.70;91.30;;;;;;5072590;28;20190;-60
2022/10/24 00:54:07;;;;;;;5.80;3.70;;;11.70;90.90;;;;;;5068983;28;20720;-60
2022/10/24 00:56:40;;;;;;;4.67;3.27;;;11.70;91.40;;;;;;5037032;28;20211;-60
2022/10/24 00:59:08;;;;;;;6.57;3.50;;;11.70;91.50;;;;;;5046858;28;20187;-60
2022/10/24 01:01:34;;;;;;;10.67;3.10;;;11.80;91.60;;;;;;5020509;28;20180;-60
2022/10/24 01:04:01;;;;;;;4.60;3.50;;;11.80;91.70;;;;;;5029716;28;20198;-60
2022/10/24 01:06:52;;;;;;;9.53;3.53;;;11.80;91.80;;;;;;5035942;28;20194;-60
2022/10/24 01:09:39;;;;;;;6.87;3.87;;;11.80;91.90;;;;;;5063904;28;20200;-60
2022/10/24 01:12:14;;;;;;;5.13;3.17;;;11.80;91.90;;;;;;5042863;28;20196;-60
2022/10/24 01:15:18;;;;;;;6.23;3.17;;;11.80;92.00;;;;;;5039832;28;20183;-60
2022/10/24 01:17:58;;;;;;;5.57;3.13;;;11.90;91.80;;;;;;5044148;28;20217;-60
2022/10/24 01:20:33;;;;;;;6.57;3.43;;;11.90;91.90;;;;;;5036043;28;20186;-60
2022/10/24 01:23:40;;;;;;;5.93;2.83;;;12.00;92.00;;;;;;5040431;28;20177;-60
2022/10/24 01:26:40;;;;;;;7.00;3.57;;;11.90;92.00;;;;;;5040937;28;20178;-60
2022/10/24 01:29:18;;;;;;;7.27;2.87;;;12.00;92.10;;;;;;5034813;28;20179;-60
2022/10/24 01:31:58;;;;;;;7.07;3.83;;;12.00;91.90;;;;;;5022905;28;20179;-60
2022/10/24 01:34:31;;;;;;;7.13;3.70;;;12.00;91.90;;;;;;5036607;28;20170;-60
2022/10/24 01:37:08;;;;;;;8.43;3.97;;;12.00;91.90;;;;;;5036797;28;20206;-60
2022/10/24 01:39:43;;;;;;;4.00;3.40;;;12.00;91.80;;;;;;5075515;28;20189;-60
2022/10/24 01:42:13;;;;;;;5.67;3.37;;;12.10;91.40;;;;;;5040813;28;20188;-60
2022/10/24 01:44:43;;;;;;;4.00;3.23;;;12.30;90.60;;;;;;5069164;28;20179;-60
2022/10/24 01:47:14;;;;;;;7.57;4.00;;;12.30;90.10;;;;;;5037821;28;20185;-60
2022/10/24 01:49:44;;;;;;;5.17;3.00;;;12.40;89.40;;;;;;5035774;28;20195;-60
2022/10/24 01:52:14;;;;;;;6.07;3.07;;;12.50;90.00;;;;;;5045904;28;20192;-61
2022/10/24 01:54:42;;;;;;;7.53;3.43;;;12.50;89.90;;;;;;5036689;28;20289;-61
2022/10/24 01:57:08;;;;;;;5.60;3.23;;;12.50;88.50;;;;;;5066508;28;20294;-61
2022/10/24 01:59:38;;;;;;;5.50;3.27;;;12.60;88.90;;;;;;5034846;28;20242;-61
2022/10/24 02:02:32;;;;;;;9.03;3.50;;;12.60;89.30;;;;;;5043569;28;20179;-60
2022/10/24 02:05:03;;;;;;;7.97;3.83;;;12.60;89.80;;;;;;5065597;28;20186;-60
2022/10/24 02:07:30;;;;;;;3.57;3.10;;;12.50;90.10;;;;;;5035567;28;20191;-60
2022/10/24 02:10:18;;;;;;;6.43;2.93;;;12.50;90.40;;;;;;5020211;28;20187;-60
2022/10/24 02:12:50;;;;;;;10.00;3.60;;;12.40;89.90;;;;;;5051204;28;20190;-60
2022/10/24 02:15:33;;;;;;;6.27;3.57;;;12.30;90.20;;;;;;5046661;28;20187;-60
2022/10/24 02:18:00;;;;;;;4.27;3.13;;;12.30;90.40;;;;;;5034752;28;20209;-60
2022/10/24 02:20:41;;;;;;;6.87;3.20;;;12.30;90.60;;;;;;5036153;28;20204;-60
2022/10/24 02:23:25;;;;;;;6.20;2.90;;;12.30;90.80;;;;;;5062152;28;20183;-60
2022/10/24 02:25:55;;;;;;;9.27;3.63;;;12.30;90.60;;;;;;5066526;28;20673;-60
2022/10/24 02:28:25;;;;;;;8.43;3.90;;;12.30;90.80;;;;;;5069998;28;20191;-60
2022/10/24 02:30:58;;;;;;;4.43;2.97;;;12.30;90.90;;;;;;5074563;28;20191;-60
2022/10/24 02:33:26;;;;;;;3.90;2.60;;;12.30;91.10;;;;;;5035393;28;20270;-60
2022/10/24 02:35:54;;;;;;;6.50;3.37;;;12.30;90.80;;;;;;5018743;28;20218;-60
2022/10/24 02:38:19;;;;;;;4.40;4.00;;;12.30;91.20;;;;;;5034878;28;20204;-60
2022/10/24 02:40:47;;;;;;;8.13;3.60;;;12.30;91.20;;;;;;5073369;28;20209;-60
2022/10/24 02:43:14;;;;;;;7.83;3.63;;;12.20;91.20;;;;;;5018011;28;20186;-60
2022/10/24 02:45:40;;;;;;;3.97;3.20;;;12.20;90.90;;;;;;5035486;28;20269;-60
2022/10/24 02:48:11;;;;;;;6.63;3.47;;;12.10;91.10;;;;;;5018221;28;20278;-60
2022/10/24 02:50:39;;;;;;;6.67;3.57;;;12.10;91.20;;;;;;5034034;28;20179;-60
2022/10/24 02:53:07;;;;;;;5.43;3.67;;;12.10;91.10;;;;;;5034727;28;20190;-60
2022/10/24 02:55:32;;;;;;;5.83;3.50;;;12.00;91.00;;;;;;5033174;28;20284;-60
2022/10/24 02:57:58;;;;;;;5.60;3.97;;;12.00;91.20;;;;;;5046156;28;20215;-60
2022/10/24 03:00:24;;;;;;;5.33;3.50;;;12.00;90.70;;;;;;5018199;28;20199;-60
2022/10/24 03:02:49;;;;;;;6.77;3.40;;;12.10;91.10;;;;;;5026422;28;20178;-61
2022/10/24 03:05:15;;;;;;;5.50;3.63;;;12.10;91.10;;;;;;5037984;28;20187;-61
2022/10/24 03:07:41;;;;;;;7.73;4.17;;;12.10;91.30;;;;;;5022883;28;20250;-61
2022/10/24 03:10:07;;;;;;;6.60;3.33;;;12.20;91.00;;;;;;5016348;28;20201;-61
2022/10/24 03:12:32;;;;;;;5.23;3.40;;;12.10;91.00;;;;;;5005432;28;20250;-60
2022/10/24 03:14:58;;;;;;;4.27;3.17;;;12.10;91.20;;;;;;5015353;28;20187;-60
2022/10/24 03:17:24;;;;;;;8.17;3.13;;;12.10;91.20;;;;;;5013361;28;20221;-60
2022/10/24 03:19:49;;;;;;;4.43;3.07;;;12.10;91.20;;;;;;5031595;28;20274;-60
2022/10/24 03:22:15;;;;;;;7.87;3.80;;;12.20;91.30;;;;;;5017990;28;20280;-60
2022/10/24 03:24:40;;;;;;;5.03;3.40;;;12.20;91.40;;;;;;5017124;28;20187;-60
2022/10/24 03:27:06;;;;;;;7.77;3.13;;;12.20;91.40;;;;;;5037705;28;20245;-60
2022/10/24 03:29:32;;;;;;;6.07;3.33;;;12.20;91.40;;;;;;5017442;28;20187;-60
2022/10/24 03:31:57;;;;;;;4.60;4.10;;;12.10;91.40;;;;;;5029579;28;20319;-60
2022/10/24 03:34:23;;;;;;;5.20;3.30;;;12.10;91.40;;;;;;5019349;28;20213;-60
2022/10/24 03:36:49;;;;;;;5.53;3.10;;;12.00;91.20;;;;;;5060445;28;20207;-60
2022/10/24 03:39:14;;;;;;;4.63;3.13;;;12.00;90.80;;;;;;5028180;28;20273;-60
2022/10/24 03:41:40;;;;;;;8.33;3.67;;;12.00;91.00;;;;;;5016275;28;20179;-60
2022/10/24 03:44:05;;;;;;;7.07;4.00;;;12.00;90.90;;;;;;5027288;28;20198;-60
2022/10/24 03:46:31;;;;;;;3.60;3.10;;;12.00;91.20;;;;;;5019691;28;20217;-60
2022/10/24 03:48:57;;;;;;;6.30;3.00;;;12.00;91.30;;;;;;5030511;28;20198;-60
2022/10/24 03:51:22;;;;;;;3.87;3.47;;;12.00;91.30;;;;;;5018413;28;20274;-60
2022/10/24 03:53:48;;;;;;;6.57;4.13;;;12.00;91.40;;;;;;5013374;28;20210;-60
2022/10/24 03:56:14;;;;;;;7.77;3.57;;;12.00;91.30;;;;;;5018897;28;20235;-60
2022/10/24 03:58:39;;;;;;;7.97;3.50;;;12.00;91.30;;;;;;5019680;28;20184;-60
2022/10/24 04:01:05;;;;;;;10.30;3.53;;;12.00;91.20;;;;;;5013787;28;20198;-60
2022/10/24 04:03:31;;;;;;;7.07;3.90;;;12.00;90.60;;;;;;5046853;28;20187;-60
2022/10/24 04:05:56;;;;;;;13.00;4.07;;;12.10;89.80;;;;;;5020098;28;20196;-60
2022/10/24 04:08:22;;;;;;;4.23;3.30;;;12.30;89.10;;;;;;5034036;28;20187;-60
2022/10/24 04:10:48;;;;;;;8.00;3.60;;;12.60;88.40;;;;;;5067131;28;20210;-60
2022/10/24 04:13:14;;;;;;;4.43;3.40;;;12.50;89.20;;;;;;5021707;28;20285;-59
2022/10/24 04:15:40;;;;;;;5.23;3.57;;;12.50;89.60;;;;;;5021125;28;20344;-59
2022/10/24 04:18:07;;;;;;;7.03;3.30;;;12.50;89.80;;;;;;5058766;28;20210;-59
2022/10/24 04:20:33;;;;;;;6.60;3.50;;;12.50;90.20;;;;;;5016410;28;20187;-59
2022/10/24 04:22:59;;;;;;;8.13;3.27;;;12.50;90.30;;;;;;5030876;28;20188;-59
2022/10/24 04:25:25;;;;;;;6.77;3.77;;;12.40;89.60;;;;;;5014458;28;20190;-59
2022/10/24 04:27:50;;;;;;;5.37;3.83;;;12.50;89.60;;;;;;5015762;28;20203;-59
2022/10/24 04:30:16;;;;;;;3.70;3.27;;;12.50;89.50;;;;;;5065987;28;20183;-59
2022/10/24 04:32:42;;;;;;;6.77;3.73;;;12.40;89.60;;;;;;5018303;28;20198;-59
2022/10/24 04:35:08;;;;;;;8.27;3.63;;;12.40;89.70;;;;;;5020287;28;20245;-57
2022/10/24 04:37:34;;;;;;;5.13;3.40;;;12.40;89.90;;;;;;5023715;28;20226;-57
2022/10/24 04:39:59;;;;;;;11.77;4.30;;;12.40;90.20;;;;;;5027680;28;20196;-57
2022/10/24 04:42:25;;;;;;;8.00;4.47;;;12.40;90.50;;;;;;5017895;28;20234;-59
2022/10/24 04:44:51;;;;;;;7.53;4.53;;;12.40;90.30;;;;;;5057882;28;20198;-59
2022/10/24 04:47:17;;;;;;;4.57;3.57;;;12.40;90.50;;;;;;5022157;28;20187;-59
2022/10/24 04:49:43;;;;;;;9.53;4.33;;;12.40;90.60;;;;;;5066236;28;20187;-59
2022/10/24 04:52:09;;;;;;;8.70;4.00;;;12.30;90.20;;;;;;5028789;28;20283;-59
2022/10/24 04:54:34;;;;;;;6.73;3.37;;;12.30;90.30;;;;;;5016075;28;20326;-59
2022/10/24 04:57:00;;;;;;;3.97;3.50;;;12.30;90.50;;;;;;5032436;28;20211;-59
2022/10/24 04:59:26;;;;;;;9.40;3.77;;;12.30;90.10;;;;;;5016994;28;20245;-59
2022/10/24 05:01:53;;;;;;;5.73;3.60;;;12.30;90.30;;;;;;5018734;28;20187;-59
2022/10/24 05:04:19;;;;;;;5.03;3.37;;;12.20;90.50;;;;;;5026187;28;20183;-59
2022/10/24 05:06:45;;;;;;;5.37;3.53;;;12.20;90.50;;;;;;5052819;28;20191;-59
2022/10/24 05:09:12;;;;;;;5.57;4.10;;;12.10;90.20;;;;;;5041679;28;20198;-59
2022/10/24 05:11:38;;;;;;;10.27;3.83;;;12.10;90.40;;;;;;5053298;28;20191;-59
2022/10/24 05:14:03;;;;;;;5.87;3.50;;;12.10;90.50;;;;;;5050212;28;20187;-59
2022/10/24 05:16:29;;;;;;;6.07;3.60;;;12.10;90.40;;;;;;5059852;28;20190;-59
2022/10/24 05:18:55;;;;;;;5.90;3.53;;;12.00;90.20;;;;;;5019737;28;20195;-59
2022/10/24 05:21:20;;;;;;;9.07;4.00;;;12.00;90.50;;;;;;5017239;28;20241;-59
2022/10/24 05:23:46;;;;;;;7.37;3.53;;;12.00;90.50;;;;;;5017421;28;20206;-59
2022/10/24 05:26:12;;;;;;;9.77;4.03;;;12.00;90.60;;;;;;5015811;28;20195;-59
2022/10/24 05:28:37;;;;;;;9.03;3.87;;;11.90;90.70;;;;;;5015679;28;20196;-59
2022/10/24 05:31:03;;;;;;;9.33;4.30;;;11.90;90.60;;;;;;5015916;28;20194;-59
2022/10/24 05:33:29;;;;;;;5.37;3.63;;;11.90;90.60;;;;;;5009495;28;20194;-59
2022/10/24 05:35:55;;;;;;;6.07;3.80;;;11.90;90.90;;;;;;5065872;28;20313;-59
2022/10/24 05:38:21;;;;;;;6.77;4.03;;;12.00;91.00;;;;;;5023763;28;20222;-59
2022/10/24 05:40:48;;;;;;;6.30;3.87;;;12.00;91.10;;;;;;5050776;28;20197;-59
2022/10/24 05:43:15;;;;;;;7.60;4.20;;;12.00;91.10;;;;;;5020378;28;20226;-59
2022/10/24 05:45:41;;;;;;;7.53;4.00;;;12.00;91.20;;;;;;5017227;28;20222;-59
2022/10/24 05:48:06;;;;;;;8.37;4.23;;;12.00;91.20;;;;;;5016967;28;20206;-59
2022/10/24 05:50:33;;;;;;;7.10;3.60;;;12.00;91.30;;;;;;5014413;28;20191;-59
2022/10/24 05:52:59;;;;;;;5.40;4.10;;;12.00;91.20;;;;;;5017294;28;20278;-59
2022/10/24 05:55:25;;;;;;;7.97;4.13;;;12.00;91.20;;;;;;5029554;28;20334;-59
2022/10/24 05:57:51;;;;;;;8.43;3.50;;;12.00;91.10;;;;;;4980823;28;20220;-59
2022/10/24 06:00:17;;;;;;;7.83;4.07;;;12.00;90.90;;;;;;5024641;28;20219;-59
2022/10/24 06:02:44;;;;;;;8.50;3.90;;;11.90;90.80;;;;;;5033317;28;20185;-59
2022/10/24 06:05:10;;;;;;;7.23;4.27;;;12.00;91.10;;;;;;5025111;28;20183;-59
2022/10/24 06:07:36;;;;;;;11.43;4.50;;;12.00;91.10;;;;;;5033270;28;20187;-59
2022/10/24 06:10:04;;;;;;;8.60;4.90;;;11.90;90.80;;;;;;5076315;28;20199;-59
2022/10/24 06:12:30;;;;;;;10.53;5.67;;;11.90;90.90;;;;;;5025913;28;20369;-59
2022/10/24 06:14:56;;;;;;;6.40;4.97;;;11.90;91.00;;;;;;5032366;28;20270;-59
2022/10/24 06:17:22;;;;;;;7.40;3.50;;;11.90;91.00;;;;;;5016734;28;20226;-59
2022/10/24 06:19:49;;;;;;;7.40;3.97;;;11.90;91.10;;;;;;5018864;28;20187;-59
2022/10/24 06:22:16;;;;;;;5.03;3.80;;;12.00;91.20;;;;;;5018562;28;20210;-59
2022/10/24 06:24:41;;;;;;;5.60;3.90;;;12.00;91.30;;;;;;5056504;28;20214;-59
2022/10/24 06:27:07;;;;;;;8.97;4.30;;;12.00;91.30;;;;;;5047205;28;20191;-59
2022/10/24 06:29:34;;;;;;;10.30;4.63;;;11.90;90.60;;;;;;5011659;28;20285;-59
2022/10/24 06:32:00;;;;;;;13.63;5.80;;;11.90;90.90;;;;;;5043632;28;20250;-59
2022/10/24 06:34:26;;;;;;;9.40;4.47;;;12.00;91.10;;;;;;5018658;28;20268;-59
2022/10/24 06:36:52;;;;;;;5.70;3.90;;;12.00;91.20;;;;;;5034179;28;20210;-59
2022/10/24 06:39:17;;;;;;;4.67;3.67;;;12.00;91.10;;;;;;5021329;28;20190;-59
2022/10/24 06:41:43;;;;;;;6.20;3.33;;;12.00;91.10;;;;;;5016364;28;20375;-59
2022/10/24 06:44:09;;;;;;;10.03;3.70;;;12.10;91.30;;;;;;5032268;28;20274;-59
2022/10/24 06:46:34;;;;;;;10.03;4.17;;;12.10;91.30;;;;;;5016436;28;20267;-59
2022/10/24 06:49:00;;;;;;;8.60;4.00;;;12.20;91.50;;;;;;5033160;28;20183;-59
2022/10/24 06:51:26;;;;;;;9.30;4.87;;;12.20;91.20;;;;;;5021409;28;20680;-59
2022/10/24 06:53:51;;;;;;;8.63;4.53;;;12.20;91.40;;;;;;5031512;28;20198;-59
2022/10/24 06:56:17;;;;;;;10.03;5.17;;;12.30;91.40;;;;;;5030244;28;20357;-59
2022/10/24 06:58:43;;;;;;;10.27;4.83;;;12.30;91.40;;;;;;5032359;28;20195;-59
2022/10/24 07:01:10;;;;;;;7.97;4.63;;;12.30;91.20;;;;;;5027730;28;20199;-59
2022/10/24 07:03:37;;;;;;;9.30;4.60;;;12.30;91.40;;;;;;5031524;28;20344;-59
2022/10/24 07:06:12;;;;;;;12.80;4.07;;;12.30;91.40;;;;;;5064009;28;20187;-59
2022/10/24 07:08:38;;;;;;;6.40;3.67;;;12.40;91.30;;;;;;5026790;28;20179;-59
2022/10/24 07:11:04;;;;;;;6.47;3.70;;;12.40;91.40;;;;;;5038766;28;20191;-59
2022/10/24 07:13:29;;;;;;;6.77;4.23;;;12.50;91.40;;;;;;5030501;28;20194;-59
2022/10/24 07:15:55;;;;;;;7.73;4.00;;;12.50;91.50;;;;;;5020202;28;20215;-59
2022/10/24 07:18:21;;;;;;;8.67;3.60;;;12.60;91.50;;;;;;5003094;28;20207;-59
2022/10/24 07:20:47;;;;;;;12.37;3.93;;;12.70;91.60;;;;;;5028159;28;20274;-59
2022/10/24 07:23:13;;;;;;;7.07;3.87;;;12.80;91.60;;;;;;5063606;28;20278;-59
2022/10/24 07:25:40;;;;;;;9.03;4.17;;;12.80;91.70;;;;;;5034516;28;20219;-59
2022/10/24 07:28:07;;;;;;;6.63;3.90;;;12.90;91.80;;;;;;5026589;28;20194;-59
2022/10/24 07:30:32;;;;;;;6.23;3.63;;;13.00;91.70;;;;;;5035566;28;20278;-59
2022/10/24 07:32:58;;;;;;;6.43;3.83;;;13.00;91.80;;;;;;5033397;28;20281;-59
2022/10/24 07:35:24;;;;;;;5.43;4.03;;;13.10;91.70;;;;;;5014618;28;20277;-59
2022/10/24 07:37:50;;;;;;;8.27;3.60;;;13.20;91.80;;;;;;5036138;28;20202;-59
2022/10/24 07:40:17;;;;;;;7.27;3.57;;;13.20;91.70;;;;;;5063998;28;20183;-59
2022/10/24 07:42:42;;;;;;;6.27;3.80;;;13.30;91.80;;;;;;5033766;28;20191;-59
2022/10/24 07:45:09;;;;;;;5.60;4.13;;;13.40;91.80;;;;;;5047644;28;20197;-59
2022/10/24 07:47:34;;;;;;;4.33;3.40;;;13.50;91.80;;;;;;5016208;28;20188;-59
2022/10/24 07:50:00;;;;;;;6.63;3.50;;;13.50;91.70;;;;;;5028030;28;20196;-59
2022/10/24 07:52:26;;;;;;;4.03;3.50;;;13.60;91.50;;;;;;5029273;28;20198;-59
2022/10/24 07:54:53;;;;;;;5.30;3.20;;;13.70;91.60;;;;;;5015942;28;20247;-59
2022/10/24 07:57:19;;;;;;;6.03;3.87;;;13.80;91.70;;;;;;5047563;28;20215;-59
2022/10/24 07:59:44;;;;;;;3.73;3.30;;;13.80;91.70;;;;;;5015251;28;20198;-59
2022/10/24 08:02:11;;;;;;;5.13;3.90;;;13.80;91.70;;;;;;5023036;28;20187;-59
2022/10/24 08:04:38;;;;;;;3.80;3.40;;;13.90;91.70;;;;;;5013585;28;20188;-59
2022/10/24 08:07:06;;;;;;;3.57;3.00;;;14.00;91.80;;;;;;5020674;28;20206;-59
2022/10/24 08:09:36;;;;;;;4.23;3.20;;;14.00;91.50;;;;;;5015608;28;20195;-59
2022/10/24 08:12:03;;;;;;;6.47;3.93;;;14.10;91.20;;;;;;5036408;28;20228;-59
2022/10/24 08:14:28;;;;;;;7.10;4.00;;;14.10;91.20;;;;;;5014164;28;20241;-59
2022/10/24 08:16:54;;;;;;;7.43;3.63;;;14.10;91.10;;;;;;5014912;28;20208;-59
2022/10/24 08:19:20;;;;;;;7.73;3.60;;;14.20;91.20;;;;;;5030473;28;20183;-59
2022/10/24 08:21:45;;;;;;;4.80;3.53;;;14.20;90.80;;;;;;5019593;28;20180;-59
2022/10/24 08:24:11;;;;;;;4.87;3.50;;;14.30;90.50;;;;;;5015214;28;20192;-59
2022/10/24 08:26:39;;;;;;;9.40;3.80;;;14.30;90.70;;;;;;5031055;28;20178;-59
2022/10/24 08:29:09;;;;;;;7.37;3.47;;;14.30;87.70;;;;;;5029715;28;20186;-59
2022/10/24 08:31:35;;;;;;;4.90;3.47;;;14.30;86.90;;;;;;5031738;28;20186;-59
2022/10/24 08:34:04;;;;;;;8.83;3.83;;;14.40;88.40;;;;;;5029949;28;20180;-59
2022/10/24 08:36:32;;;;;;;4.73;4.00;;;14.50;88.80;;;;;;5031432;28;20286;-59
2022/10/24 08:38:59;;;;;;;5.90;3.53;;;14.60;89.10;;;;;;5034645;28;20180;-59
2022/10/24 08:41:38;;;;;;;6.87;3.73;;;14.60;88.80;;;;;;5016838;28;20188;-59
2022/10/24 08:44:13;;;;;;;5.47;3.60;;;14.60;89.10;;;;;;5030520;28;20233;-59
2022/10/24 08:46:59;;;;;;;6.40;4.10;;;14.70;88.10;;;;;;5032390;28;20174;-59
2022/10/24 08:49:49;;;;;;;7.03;3.63;;;14.70;88.30;;;;;;5030598;28;20175;-59
2022/10/24 08:52:31;;;;;;;6.27;4.23;;;14.80;88.50;;;;;;5030123;28;20185;-59
2022/10/24 08:55:03;;;;;;;5.47;3.47;;;14.80;89.00;;;;;;5036520;28;20223;-59
2022/10/24 08:57:31;;;;;;;5.20;3.20;;;14.90;88.90;;;;;;5030956;28;20195;-59
2022/10/24 09:00:02;;;;;;;7.80;3.67;;;15.00;88.90;;;;;;5030459;28;20180;-59
2022/10/24 09:02:34;;;;;;;7.13;4.00;;;15.10;89.00;;;;;;5037721;28;20175;-59
2022/10/24 09:05:39;;;;;;;3.80;2.90;;;15.10;88.70;;;;;;5036846;28;20184;-59
2022/10/24 09:08:39;;;;;;;6.23;3.97;;;15.10;88.40;;;;;;5008950;28;20196;-59
2022/10/24 09:11:06;;;;;;;5.73;3.73;;;15.20;87.90;;;;;;5037657;28;20212;-59
2022/10/24 09:13:36;;;;;;;4.03;3.00;;;15.20;88.10;;;;;;5020274;28;20200;-59
2022/10/24 09:16:02;;;;;;;6.20;3.87;;;15.30;87.80;;;;;;5033802;28;20244;-60
2022/10/24 09:18:40;;;;;;;7.40;3.90;;;15.30;87.60;;;;;;5034991;28;20222;-59
2022/10/24 09:21:10;;;;;;;5.53;3.83;;;15.30;87.80;;;;;;5034158;28;20187;-59
2022/10/24 09:23:37;;;;;;;8.47;4.10;;;15.40;88.10;;;;;;5041111;28;20267;-59
2022/10/24 09:26:06;;;;;;;5.23;3.50;;;15.40;88.00;;;;;;5072282;28;20265;-59
2022/10/24 09:28:36;;;;;;;6.90;3.50;;;15.60;88.00;;;;;;5032886;28;20213;-60
2022/10/24 09:31:16;;;;;;;9.43;3.70;;;15.60;88.10;;;;;;5068117;28;20193;-60
2022/10/24 09:33:44;;;;;;;9.87;3.60;;;15.70;87.70;;;;;;5038328;28;20242;-59
2022/10/24 09:36:13;;;;;;;8.63;3.90;;;15.70;86.90;;;;;;5033276;28;20190;-59
2022/10/24 09:38:40;;;;;;;6.47;3.90;;;15.70;87.10;;;;;;5034379;28;20195;-60
2022/10/24 09:41:23;;;;;;;6.70;4.00;;;15.70;85.30;;;;;;5034536;28;20242;-59
2022/10/24 09:43:55;;;;;;;7.50;3.90;;;15.80;85.20;;;;;;5034206;28;20175;-59
2022/10/24 09:46:23;;;;;;;7.33;3.47;;;15.80;84.00;;;;;;5046871;28;20187;-59
2022/10/24 09:49:00;;;;;;;6.00;3.40;;;16.00;85.00;;;;;;5062396;28;20179;-59
2022/10/24 09:51:28;;;;;;;4.73;3.20;;;16.10;85.80;;;;;;5076685;28;20189;-60
2022/10/24 09:54:02;;;;;;;4.13;3.70;;;16.10;85.10;;;;;;5042916;28;20203;-60
2022/10/24 09:56:40;;;;;;;6.60;3.63;;;16.20;85.00;;;;;;5066797;28;20198;-60
2022/10/24 09:59:24;;;;;;;4.97;3.27;;;16.20;84.70;;;;;;5031880;28;20317;-60
2022/10/24 10:01:50;;;;;;;7.60;3.50;;;16.20;83.50;;;;;;5063260;28;20171;-60
2022/10/24 10:04:17;;;;;;;5.57;3.73;;;16.30;82.60;;;;;;5007826;28;20194;-60
2022/10/24 10:06:46;;;;;;;7.47;3.47;;;16.30;83.10;;;;;;5018426;28;20273;-60
2022/10/24 10:09:14;;;;;;;5.63;3.90;;;16.40;83.50;;;;;;5023517;28;20183;-59
2022/10/24 10:11:41;;;;;;;9.27;3.60;;;16.50;83.80;;;;;;5035466;28;20183;-60
2022/10/24 10:14:24;;;;;;;6.60;3.60;;;16.50;82.10;;;;;;5034368;28;20223;-59
2022/10/24 10:17:03;;;;;;;4.83;3.33;;;16.60;82.40;;;;;;5072498;28;20207;-59
2022/10/24 10:19:35;;;;;;;6.40;3.80;;;16.60;82.80;;;;;;5066181;28;20183;-59
2022/10/24 10:22:04;;;;;;;6.63;3.43;;;16.80;83.00;;;;;;5034113;28;20216;-60
2022/10/24 10:24:39;;;;;;;8.63;4.03;;;16.80;83.60;;;;;;5048867;28;20182;-59
2022/10/24 10:27:37;;;;;;;6.90;3.77;;;16.80;84.00;;;;;;5031643;28;20178;-60
2022/10/24 10:30:13;;;;;;;6.53;3.47;;;16.90;83.70;;;;;;5066597;28;20188;-60
2022/10/24 10:33:17;;;;;;;5.80;3.40;;;17.00;83.40;;;;;;5050322;28;20186;-60
2022/10/24 10:36:16;;;;;;;8.50;3.47;;;17.00;83.70;;;;;;5025816;28;20188;-60
2022/10/24 10:38:47;;;;;;;5.43;3.30;;;17.00;83.60;;;;;;5036195;28;20203;-60
2022/10/24 10:41:12;;;;;;;5.77;3.60;;;17.00;84.70;;;;;;5044501;28;20199;-60
2022/10/24 10:43:53;;;;;;;5.23;3.47;;;17.10;84.60;;;;;;5072708;28;20254;-60
2022/10/24 10:46:24;;;;;;;7.67;3.40;;;17.10;84.50;;;;;;5030624;28;20183;-60
2022/10/24 10:49:26;;;;;;;4.93;3.27;;;17.20;84.60;;;;;;5032944;28;20198;-60
2022/10/24 10:52:10;;;;;;;9.60;3.50;;;17.20;85.40;;;;;;5035625;28;20209;-60
2022/10/24 10:54:53;;;;;;;7.33;3.50;;;17.10;84.90;;;;;;5026760;28;20227;-60
2022/10/24 10:57:48;;;;;;;8.90;4.30;;;17.10;84.90;;;;;;5033686;28;20230;-60
2022/10/24 11:00:31;;;;;;;6.13;3.83;;;17.20;84.30;;;;;;5017682;28;20187;-60
2022/10/24 11:03:22;;;;;;;10.63;4.23;;;17.20;84.90;;;;;;5033356;28;20195;-59
2022/10/24 11:05:50;;;;;;;6.40;3.57;;;17.20;83.10;;;;;;5065104;28;20190;-59
2022/10/24 11:08:16;;;;;;;6.10;3.80;;;17.20;84.10;;;;;;5030465;28;20198;-60
2022/10/24 11:10:50;;;;;;;10.30;4.13;;;17.20;82.80;;;;;;5037743;28;20182;-59
2022/10/24 11:13:26;;;;;;;11.17;4.37;;;17.20;84.00;;;;;;5069818;28;20267;-59
2022/10/24 11:15:58;;;;;;;7.13;3.70;;;17.10;80.20;;;;;;5067076;28;20190;-59
2022/10/24 11:18:32;;;;;;;7.00;4.07;;;17.10;79.90;;;;;;5066169;28;20199;-59
2022/10/24 11:21:07;;;;;;;7.70;4.17;;;17.10;81.10;;;;;;5064937;28;20197;-59
2022/10/24 11:23:39;;;;;;;7.03;3.97;;;17.10;81.80;;;;;;5028574;28;20191;-59
2022/10/24 11:26:19;;;;;;;7.50;4.10;;;17.10;80.70;;;;;;5037759;28;20186;-60
2022/10/24 11:29:18;;;;;;;11.00;4.20;;;17.10;80.40;;;;;;5031908;28;20188;-60
2022/10/24 11:31:48;;;;;;;8.73;4.40;;;17.20;81.90;;;;;;5027204;28;20213;-60
2022/10/24 11:34:27;;;;;;;6.53;4.30;;;17.30;82.50;;;;;;5031673;28;20196;-59
2022/10/24 11:37:04;;;;;;;11.40;3.93;;;17.30;82.70;;;;;;5028366;28;20241;-59
2022/10/24 11:39:44;;;;;;;6.77;4.37;;;17.40;83.50;;;;;;5066613;28;20182;-59
2022/10/24 11:42:29;;;;;;;7.70;4.03;;;17.40;83.40;;;;;;5062979;28;20202;-58
2022/10/24 11:45:11;;;;;;;5.93;4.00;;;17.40;82.60;;;;;;5071517;28;20189;-58
2022/10/24 11:47:37;;;;;;;9.87;3.67;;;17.50;82.50;;;;;;5030749;28;20279;-58
2022/10/24 11:50:11;;;;;;;10.07;4.10;;;17.60;82.70;;;;;;5036957;28;20232;-59
2022/10/24 11:53:12;;;;;;;6.13;3.67;;;17.70;82.60;;;;;;5035299;28;20184;-59
2022/10/24 11:55:46;;;;;;;11.77;4.53;;;17.80;83.60;;;;;;5048863;28;20222;-60
2022/10/24 11:58:20;;;;;;;12.73;4.37;;;17.80;81.80;;;;;;5074698;28;20213;-60
2022/10/24 12:01:09;;;;;;;9.30;3.77;;;17.90;83.10;;;;;;5044428;28;20198;-59
2022/10/24 12:03:56;;;;;;;6.77;3.63;;;18.00;83.50;;;;;;5033134;28;20195;-59
2022/10/24 12:06:31;;;;;;;13.27;4.10;;;18.20;83.40;;;;;;5024041;28;20179;-59
2022/10/24 12:09:23;;;;;;;6.87;3.87;;;18.20;82.40;;;;;;5041042;28;20206;-59
2022/10/24 12:12:18;;;;;;;6.20;3.43;;;18.20;82.90;;;;;;5043608;28;20198;-60
2022/10/24 12:14:49;;;;;;;4.23;3.20;;;18.30;83.40;;;;;;5039841;28;20189;-60
2022/10/24 12:17:40;;;;;;;6.37;3.63;;;18.30;82.50;;;;;;5029264;28;20305;-60
2022/10/24 12:20:13;;;;;;;13.57;4.30;;;18.20;83.00;;;;;;5030578;28;20191;-60
2022/10/24 12:22:41;;;;;;;9.17;4.13;;;18.30;83.10;;;;;;5043267;28;20191;-60
2022/10/24 12:25:13;;;;;;;7.23;3.53;;;18.20;83.50;;;;;;5042041;28;20183;-60
2022/10/24 12:27:40;;;;;;;7.27;3.13;;;18.30;83.30;;;;;;5044530;28;20186;-60
2022/10/24 12:30:08;;;;;;;9.73;3.60;;;18.20;83.40;;;;;;5057878;28;20191;-60
2022/10/24 12:32:45;;;;;;;5.27;3.30;;;18.20;82.20;;;;;;5039829;28;20190;-60
2022/10/24 12:35:26;;;;;;;7.17;3.63;;;18.10;83.10;;;;;;5068516;28;20200;-59
2022/10/24 12:37:52;;;;;;;8.13;3.63;;;18.00;82.60;;;;;;5031031;28;20199;-59
2022/10/24 12:40:46;;;;;;;6.73;3.40;;;18.00;82.30;;;;;;5045546;28;20207;-59
2022/10/24 12:43:15;;;;;;;10.07;3.70;;;17.90;83.10;;;;;;5029500;28;20203;-60
2022/10/24 12:45:41;;;;;;;7.33;3.70;;;17.90;83.00;;;;;;5035913;28;20191;-60
2022/10/24 12:48:29;;;;;;;14.53;4.53;;;17.80;83.50;;;;;;5045675;28;20200;-59
2022/10/24 12:51:23;;;;;;;9.53;4.23;;;17.80;82.60;;;;;;5032002;28;20179;-60
2022/10/24 12:54:16;;;;;;;8.13;4.33;;;17.80;83.40;;;;;;5025504;28;20203;-60
2022/10/24 12:56:48;;;;;;;8.63;4.07;;;17.80;83.60;;;;;;5031254;28;20286;-59
2022/10/24 12:59:32;;;;;;;9.73;4.10;;;17.80;84.30;;;;;;5043020;28;20237;-59
2022/10/24 13:02:19;;;;;;;7.60;3.53;;;17.80;84.30;;;;;;5050375;28;20204;-59
2022/10/24 13:04:54;;;;;;;11.30;3.50;;;17.80;84.50;;;;;;5044771;28;20194;-60
2022/10/24 13:07:47;;;;;;;11.47;4.17;;;17.80;83.50;;;;;;5047598;28;20191;-60